sensor_id;sensor_type;location;lat;lon;timestamp;pressure;altitude;pressure_sealevel;temperature;humidity
13033;BME280;6583;42.632;23.298;2023-02-21T00:00:04;71040.34;;;-146.40;41.31
13033;BME280;6583;42.632;23.298;2023-02-21T00:02:48;71048.44;;;-146.40;40.64
13033;BME280;6583;42.632;23.298;2023-02-21T00:05:32;71038.31;;;-146.40;41.01
13033;BME280;6583;42.632;23.298;2023-02-21T00:08:18;71048.44;;;-146.40;40.69
13033;BME280;6583;42.632;23.298;2023-02-21T00:11:02;71044.38;;;-146.40;41.02
13033;BME280;6583;42.632;23.298;2023-02-21T00:13:45;71038.31;;;-146.40;40.47
13033;BME280;6583;42.632;23.298;2023-02-21T00:16:29;71048.44;;;-146.40;40.77
13033;BME280;6583;42.632;23.298;2023-02-21T00:19:13;71050.44;;;-146.40;40.94
13033;BME280;6583;42.632;23.298;2023-02-21T00:21:57;71056.53;;;-146.40;41.14
13033;BME280;6583;42.632;23.298;2023-02-21T00:24:42;71040.34;;;-146.40;40.50
13033;BME280;6583;42.632;23.298;2023-02-21T00:27:26;71032.25;;;-146.40;40.59
13033;BME280;6583;42.632;23.298;2023-02-21T00:30:11;71040.34;;;-146.40;41.26
13033;BME280;6583;42.632;23.298;2023-02-21T00:32:55;71009.97;;;-146.40;40.49
13033;BME280;6583;42.632;23.298;2023-02-21T00:35:39;71016.06;;;-146.40;40.30
13033;BME280;6583;42.632;23.298;2023-02-21T00:38:23;71028.19;;;-146.40;40.92
13033;BME280;6583;42.632;23.298;2023-02-21T00:41:08;71034.25;;;-146.40;41.17
13033;BME280;6583;42.632;23.298;2023-02-21T00:43:53;71052.47;;;-146.40;41.09
13033;BME280;6583;42.632;23.298;2023-02-21T00:46:37;71052.47;;;-146.40;40.92
13033;BME280;6583;42.632;23.298;2023-02-21T00:49:21;71046.41;;;-146.40;40.90
13033;BME280;6583;42.632;23.298;2023-02-21T00:52:05;71056.53;;;-146.40;41.31
13033;BME280;6583;42.632;23.298;2023-02-21T00:54:49;71062.59;;;-146.40;41.75
13033;BME280;6583;42.632;23.298;2023-02-21T00:57:34;71113.19;;;-146.40;42.46
13033;BME280;6583;42.632;23.298;2023-02-21T01:00:21;71113.19;;;-146.40;43.06
13033;BME280;6583;42.632;23.298;2023-02-21T01:03:06;71121.28;;;-146.40;43.62
13033;BME280;6583;42.632;23.298;2023-02-21T01:05:51;71137.47;;;-146.40;43.83
13033;BME280;6583;42.632;23.298;2023-02-21T01:08:39;71109.13;;;-146.40;43.43
13033;BME280;6583;42.632;23.298;2023-02-21T01:11:24;71080.81;;;-146.40;42.66
13033;BME280;6583;42.632;23.298;2023-02-21T01:14:10;71080.81;;;-146.40;43.07
13033;BME280;6583;42.632;23.298;2023-02-21T01:16:54;71084.84;;;-146.40;43.25
13033;BME280;6583;42.632;23.298;2023-02-21T01:19:38;71086.88;;;-146.40;42.88
13033;BME280;6583;42.632;23.298;2023-02-21T01:22:23;71058.53;;;-146.40;42.74
13033;BME280;6583;42.632;23.298;2023-02-21T01:25:07;71052.47;;;-146.40;42.87
13033;BME280;6583;42.632;23.298;2023-02-21T01:27:52;71068.66;;;-146.40;42.86
13033;BME280;6583;42.632;23.298;2023-02-21T01:30:38;71056.53;;;-146.40;42.13
13033;BME280;6583;42.632;23.298;2023-02-21T01:33:22;71022.13;;;-146.40;41.89
13033;BME280;6583;42.632;23.298;2023-02-21T01:36:06;71007.97;;;-146.40;41.30
13033;BME280;6583;42.632;23.298;2023-02-21T01:38:50;70977.59;;;-146.40;40.62
13033;BME280;6583;42.632;23.298;2023-02-21T01:41:34;70973.56;;;-146.40;40.33
13033;BME280;6583;42.632;23.298;2023-02-21T01:44:34;70959.41;;;-146.40;39.86
13033;BME280;6583;42.632;23.298;2023-02-21T01:47:20;70951.31;;;-146.40;40.16
13033;BME280;6583;42.632;23.298;2023-02-21T01:50:09;70951.31;;;-146.40;40.41
13033;BME280;6583;42.632;23.298;2023-02-21T01:52:54;70961.41;;;-146.40;40.57
13033;BME280;6583;42.632;23.298;2023-02-21T01:55:39;70979.63;;;-146.40;41.61
13033;BME280;6583;42.632;23.298;2023-02-21T01:58:26;71020.09;;;-146.40;42.49
13033;BME280;6583;42.632;23.298;2023-02-21T02:01:18;71028.19;;;-146.40;42.55
13033;BME280;6583;42.632;23.298;2023-02-21T02:04:06;71036.28;;;-146.40;42.63
13033;BME280;6583;42.632;23.298;2023-02-21T02:06:51;71012.00;;;-146.40;42.31
13033;BME280;6583;42.632;23.298;2023-02-21T02:09:35;70981.66;;;-146.40;41.50
13033;BME280;6583;42.632;23.298;2023-02-21T02:12:42;70965.47;;;-146.40;40.35
13033;BME280;6583;42.632;23.298;2023-02-21T02:15:22;70963.44;;;-146.40;41.21
13033;BME280;6583;42.632;23.298;2023-02-21T02:24:28;71038.31;;;-146.40;42.46
13033;BME280;6583;42.632;23.298;2023-02-21T02:27:33;71028.19;;;-146.40;42.09
13033;BME280;6583;42.632;23.298;2023-02-21T02:30:32;71024.16;;;-146.40;42.58
13033;BME280;6583;42.632;23.298;2023-02-21T02:36:06;71009.97;;;-146.40;42.46
13033;BME280;6583;42.632;23.298;2023-02-21T02:38:37;70991.78;;;-146.40;41.66
13033;BME280;6583;42.632;23.298;2023-02-21T02:41:15;70999.88;;;-146.40;42.31
13033;BME280;6583;42.632;23.298;2023-02-21T02:43:48;71007.97;;;-146.40;42.43
13033;BME280;6583;42.632;23.298;2023-02-21T02:46:19;71040.34;;;-146.40;43.05
13033;BME280;6583;42.632;23.298;2023-02-21T02:48:52;71092.94;;;-146.40;44.21
13033;BME280;6583;42.632;23.298;2023-02-21T02:51:24;71099.00;;;-146.40;44.87
13033;BME280;6583;42.632;23.298;2023-02-21T02:53:51;71119.25;;;-146.40;45.29
13033;BME280;6583;42.632;23.298;2023-02-21T02:56:18;71129.38;;;-146.40;45.93
13033;BME280;6583;42.632;23.298;2023-02-21T02:58:50;71141.50;;;-146.40;46.72
13033;BME280;6583;42.632;23.298;2023-02-21T03:04:33;71240.66;;;-146.40;48.43
13033;BME280;6583;42.632;23.298;2023-02-21T03:07:14;71248.75;;;-146.40;49.51
13033;BME280;6583;42.632;23.298;2023-02-21T03:09:50;71242.69;;;-146.40;49.45
13033;BME280;6583;42.632;23.298;2023-02-21T03:12:26;71202.22;;;-146.40;47.61
13033;BME280;6583;42.632;23.298;2023-02-21T03:15:02;71194.13;;;-146.40;47.41
13033;BME280;6583;42.632;23.298;2023-02-21T03:17:33;71200.19;;;-146.40;47.90
13033;BME280;6583;42.632;23.298;2023-02-21T03:20:03;71218.41;;;-146.40;48.54
13033;BME280;6583;42.632;23.298;2023-02-21T03:22:32;71186.03;;;-146.40;47.05
13033;BME280;6583;42.632;23.298;2023-02-21T03:25:01;71123.28;;;-146.40;45.36
13033;BME280;6583;42.632;23.298;2023-02-21T03:27:29;71097.00;;;-146.40;45.14
13033;BME280;6583;42.632;23.298;2023-02-21T03:30:01;71064.63;;;-146.40;43.97
13033;BME280;6583;42.632;23.298;2023-02-21T03:32:30;71040.34;;;-146.40;43.44
13033;BME280;6583;42.632;23.298;2023-02-21T03:34:57;71040.34;;;-146.40;43.49
13033;BME280;6583;42.632;23.298;2023-02-21T03:37:29;71016.06;;;-146.40;42.52
13033;BME280;6583;42.632;23.298;2023-02-21T03:39:58;71007.97;;;-146.40;42.86
13033;BME280;6583;42.632;23.298;2023-02-21T03:42:25;70967.50;;;-146.40;41.91
13033;BME280;6583;42.632;23.298;2023-02-21T03:44:52;70935.13;;;-146.40;41.42
13033;BME280;6583;42.632;23.298;2023-02-21T03:47:19;70931.06;;;-146.40;40.60
13033;BME280;6583;42.632;23.298;2023-02-21T03:49:45;70933.09;;;-146.40;40.86
13033;BME280;6583;42.632;23.298;2023-02-21T03:52:12;70967.50;;;-146.40;41.67
13033;BME280;6583;42.632;23.298;2023-02-21T03:54:39;71020.09;;;-146.40;42.69
13033;BME280;6583;42.632;23.298;2023-02-21T03:57:08;71056.53;;;-146.40;42.88
13033;BME280;6583;42.632;23.298;2023-02-21T03:59:34;71074.72;;;-146.40;43.20
13033;BME280;6583;42.632;23.298;2023-02-21T04:02:01;71097.00;;;-146.40;44.65
13033;BME280;6583;42.632;23.298;2023-02-21T04:04:30;71105.09;;;-146.40;45.00
13033;BME280;6583;42.632;23.298;2023-02-21T04:06:57;71097.00;;;-146.40;43.84
13033;BME280;6583;42.632;23.298;2023-02-21T04:09:23;71099.00;;;-146.40;44.34
13033;BME280;6583;42.632;23.298;2023-02-21T04:11:51;71080.81;;;-146.40;43.70
13033;BME280;6583;42.632;23.298;2023-02-21T04:14:19;71113.19;;;-146.40;43.98
13033;BME280;6583;42.632;23.298;2023-02-21T04:16:46;71137.47;;;-146.40;45.45
13033;BME280;6583;42.632;23.298;2023-02-21T04:19:13;71204.25;;;-146.40;46.60
13033;BME280;6583;42.632;23.298;2023-02-21T04:21:40;71238.66;;;-146.40;48.14
13033;BME280;6583;42.632;23.298;2023-02-21T04:24:06;71256.84;;;-146.40;48.08
13033;BME280;6583;42.632;23.298;2023-02-21T04:26:33;71254.84;;;-146.40;49.38
13033;BME280;6583;42.632;23.298;2023-02-21T04:29:00;71279.13;;;-146.40;49.74
13033;BME280;6583;42.632;23.298;2023-02-21T04:31:28;71311.50;;;-146.40;50.68
13033;BME280;6583;42.632;23.298;2023-02-21T04:33:55;71295.31;;;-146.40;50.26
13033;BME280;6583;42.632;23.298;2023-02-21T04:36:21;71343.88;;;-146.40;51.45
13033;BME280;6583;42.632;23.298;2023-02-21T04:38:48;71362.09;;;-146.40;52.92
13033;BME280;6583;42.632;23.298;2023-02-21T04:41:15;71347.91;;;-146.40;52.49
13033;BME280;6583;42.632;23.298;2023-02-21T04:43:42;71380.31;;;-146.40;53.49
13033;BME280;6583;42.632;23.298;2023-02-21T04:46:09;71378.28;;;-146.40;52.80
13033;BME280;6583;42.632;23.298;2023-02-21T04:48:41;71402.56;;;-146.40;53.63
13033;BME280;6583;42.632;23.298;2023-02-21T04:51:08;71394.47;;;-146.40;54.19
13033;BME280;6583;42.632;23.298;2023-02-21T04:53:34;71404.59;;;-146.40;53.89
13033;BME280;6583;42.632;23.298;2023-02-21T04:56:01;71412.69;;;-146.40;54.20
13033;BME280;6583;42.632;23.298;2023-02-21T04:58:31;71422.81;;;-146.40;55.83
13033;BME280;6583;42.632;23.298;2023-02-21T05:00:57;71416.72;;;-146.40;54.99
13033;BME280;6583;42.632;23.298;2023-02-21T05:03:24;71392.44;;;-146.40;56.16
13033;BME280;6583;42.632;23.298;2023-02-21T05:05:52;71382.31;;;-146.40;55.27
13033;BME280;6583;42.632;23.298;2023-02-21T05:08:19;71380.31;;;-146.40;54.74
13033;BME280;6583;42.632;23.298;2023-02-21T05:10:45;71347.91;;;-146.40;54.23
13033;BME280;6583;42.632;23.298;2023-02-21T05:13:12;71339.81;;;-146.40;54.89
13033;BME280;6583;42.632;23.298;2023-02-21T05:15:40;71307.44;;;-146.40;53.49
13033;BME280;6583;42.632;23.298;2023-02-21T05:18:07;71266.97;;;-146.40;52.29
13033;BME280;6583;42.632;23.298;2023-02-21T05:20:33;71214.34;;;-146.40;49.82
13033;BME280;6583;42.632;23.298;2023-02-21T05:23:01;71119.25;;;-146.40;46.01
13033;BME280;6583;42.632;23.298;2023-02-21T05:25:28;71072.72;;;-146.40;45.12
13033;BME280;6583;42.632;23.298;2023-02-21T05:27:55;71052.47;;;-146.40;44.50
13033;BME280;6583;42.632;23.298;2023-02-21T05:30:22;71024.16;;;-146.40;43.39
13033;BME280;6583;42.632;23.298;2023-02-21T05:32:49;70993.78;;;-146.40;43.12
13033;BME280;6583;42.632;23.298;2023-02-21T05:35:16;70995.81;;;-146.40;43.23
13033;BME280;6583;42.632;23.298;2023-02-21T05:37:43;70999.88;;;-146.40;43.09
13033;BME280;6583;42.632;23.298;2023-02-21T05:40:14;71016.06;;;-146.40;43.52
13033;BME280;6583;42.632;23.298;2023-02-21T05:42:41;71082.81;;;-146.40;44.65
13033;BME280;6583;42.632;23.298;2023-02-21T05:45:08;71088.91;;;-146.40;45.33
13033;BME280;6583;42.632;23.298;2023-02-21T05:47:35;71121.28;;;-146.40;45.58
13033;BME280;6583;42.632;23.298;2023-02-21T05:50:03;71157.69;;;-146.40;47.00
13033;BME280;6583;42.632;23.298;2023-02-21T05:52:30;71175.91;;;-146.40;47.00
13033;BME280;6583;42.632;23.298;2023-02-21T05:54:56;71216.38;;;-146.40;48.34
13033;BME280;6583;42.632;23.298;2023-02-21T05:57:24;71210.31;;;-146.40;48.71
13033;BME280;6583;42.632;23.298;2023-02-21T05:59:51;71248.75;;;-146.40;49.49
13033;BME280;6583;42.632;23.298;2023-02-21T06:02:17;71244.72;;;-146.40;49.15
13033;BME280;6583;42.632;23.298;2023-02-21T06:04:44;71277.09;;;-146.40;49.86
13033;BME280;6583;42.632;23.298;2023-02-21T06:07:11;71275.06;;;-146.40;50.26
13033;BME280;6583;42.632;23.298;2023-02-21T06:09:37;71277.09;;;-146.40;51.03
13033;BME280;6583;42.632;23.298;2023-02-21T06:12:04;71291.25;;;-146.40;51.13
13033;BME280;6583;42.632;23.298;2023-02-21T06:14:35;71311.50;;;-146.40;51.50
13033;BME280;6583;42.632;23.298;2023-02-21T06:17:02;71325.66;;;-146.40;53.03
13033;BME280;6583;42.632;23.298;2023-02-21T06:19:28;71325.66;;;-146.40;52.64
13033;BME280;6583;42.632;23.298;2023-02-21T06:21:55;71331.72;;;-146.40;52.35
13033;BME280;6583;42.632;23.298;2023-02-21T06:24:21;71323.63;;;-146.40;52.15
13033;BME280;6583;42.632;23.298;2023-02-21T06:26:48;71323.63;;;-146.40;52.02
13033;BME280;6583;42.632;23.298;2023-02-21T06:29:15;71309.47;;;-146.40;52.67
13033;BME280;6583;42.632;23.298;2023-02-21T06:31:43;71364.13;;;-146.40;54.89
13033;BME280;6583;42.632;23.298;2023-02-21T06:34:09;71339.81;;;-146.40;53.95
13033;BME280;6583;42.632;23.298;2023-02-21T06:36:36;71331.72;;;-146.40;53.97
13033;BME280;6583;42.632;23.298;2023-02-21T06:39:03;71331.72;;;-146.40;53.14
13033;BME280;6583;42.632;23.298;2023-02-21T06:41:30;71323.63;;;-146.40;53.39
13033;BME280;6583;42.632;23.298;2023-02-21T06:43:58;71319.59;;;-146.40;53.12
13033;BME280;6583;42.632;23.298;2023-02-21T06:46:26;71305.41;;;-146.40;51.84
13033;BME280;6583;42.632;23.298;2023-02-21T06:48:55;71287.22;;;-146.40;52.30
13033;BME280;6583;42.632;23.298;2023-02-21T06:51:21;71283.16;;;-146.40;52.17
13033;BME280;6583;42.632;23.298;2023-02-21T06:53:54;71254.84;;;-146.40;51.45
13033;BME280;6583;42.632;23.298;2023-02-21T06:56:22;71281.13;;;-146.40;52.39
13033;BME280;6583;42.632;23.298;2023-02-21T06:58:48;71269.00;;;-146.40;51.42
13033;BME280;6583;42.632;23.298;2023-02-21T07:01:15;71252.81;;;-146.40;51.28
13033;BME280;6583;42.632;23.298;2023-02-21T07:03:42;71234.59;;;-146.40;51.36
13033;BME280;6583;42.632;23.298;2023-02-21T07:06:11;71216.38;;;-146.40;51.47
13033;BME280;6583;42.632;23.298;2023-02-21T07:08:37;71202.22;;;-146.40;51.33
13033;BME280;6583;42.632;23.298;2023-02-21T07:11:04;71220.44;;;-146.40;53.04
13033;BME280;6583;42.632;23.298;2023-02-21T07:13:31;71181.97;;;-146.40;50.84
13033;BME280;6583;42.632;23.298;2023-02-21T07:15:58;71173.88;;;-146.40;50.09
13033;BME280;6583;42.632;23.298;2023-02-21T07:18:25;71149.59;;;-146.40;48.94
13033;BME280;6583;42.632;23.298;2023-02-21T07:20:51;71167.81;;;-146.40;48.49
13033;BME280;6583;42.632;23.298;2023-02-21T07:23:19;71155.69;;;-146.40;48.90
13033;BME280;6583;42.632;23.298;2023-02-21T07:25:46;71141.50;;;-146.40;48.65
13033;BME280;6583;42.632;23.298;2023-02-21T07:28:13;71149.59;;;-146.40;48.35
13033;BME280;6583;42.632;23.298;2023-02-21T07:30:40;71141.50;;;-146.40;48.35
13033;BME280;6583;42.632;23.298;2023-02-21T07:33:06;71141.50;;;-146.40;48.30
13033;BME280;6583;42.632;23.298;2023-02-21T07:35:33;71133.41;;;-146.40;48.78
13033;BME280;6583;42.632;23.298;2023-02-21T07:38:00;71129.38;;;-146.40;49.06
13033;BME280;6583;42.632;23.298;2023-02-21T07:40:28;71109.13;;;-146.40;48.58
13033;BME280;6583;42.632;23.298;2023-02-21T07:42:54;71097.00;;;-146.40;48.24
13033;BME280;6583;42.632;23.298;2023-02-21T07:45:21;71097.00;;;-146.40;47.22
13033;BME280;6583;42.632;23.298;2023-02-21T07:47:48;71094.97;;;-146.40;47.58
13033;BME280;6583;42.632;23.298;2023-02-21T07:50:17;71092.94;;;-146.40;48.80
13033;BME280;6583;42.632;23.298;2023-02-21T07:52:45;71080.81;;;-146.40;47.27
13033;BME280;6583;42.632;23.298;2023-02-21T07:55:11;71080.81;;;-146.40;47.56
13033;BME280;6583;42.632;23.298;2023-02-21T07:57:39;71074.72;;;-146.40;47.59
13033;BME280;6583;42.632;23.298;2023-02-21T08:00:07;71084.84;;;-146.40;47.47
13033;BME280;6583;42.632;23.298;2023-02-21T08:02:34;71076.75;;;-146.40;48.19
13033;BME280;6583;42.632;23.298;2023-02-21T08:05:01;71068.66;;;-146.40;47.70
13033;BME280;6583;42.632;23.298;2023-02-21T08:07:28;71090.91;;;-146.40;47.64
13033;BME280;6583;42.632;23.298;2023-02-21T08:09:55;71084.84;;;-146.40;47.71
13033;BME280;6583;42.632;23.298;2023-02-21T08:12:21;71097.00;;;-146.40;47.59
13033;BME280;6583;42.632;23.298;2023-02-21T08:14:49;71086.88;;;-146.40;47.68
13033;BME280;6583;42.632;23.298;2023-02-21T08:17:16;71092.94;;;-146.40;48.71
13033;BME280;6583;42.632;23.298;2023-02-21T08:19:43;71088.91;;;-146.40;48.89
13033;BME280;6583;42.632;23.298;2023-02-21T08:22:10;71076.75;;;-146.40;48.33
13033;BME280;6583;42.632;23.298;2023-02-21T08:24:36;71094.97;;;-146.40;48.93
13033;BME280;6583;42.632;23.298;2023-02-21T08:27:03;71084.84;;;-146.40;49.48
13033;BME280;6583;42.632;23.298;2023-02-21T08:29:30;71074.72;;;-146.40;48.58
13033;BME280;6583;42.632;23.298;2023-02-21T08:31:58;71068.66;;;-146.40;47.28
13033;BME280;6583;42.632;23.298;2023-02-21T08:34:25;71078.78;;;-146.40;47.82
13033;BME280;6583;42.632;23.298;2023-02-21T08:36:54;71068.66;;;-146.40;48.29
13033;BME280;6583;42.632;23.298;2023-02-21T08:39:21;71066.63;;;-146.40;47.44
13033;BME280;6583;42.632;23.298;2023-02-21T08:41:47;71064.63;;;-146.40;48.07
13033;BME280;6583;42.632;23.298;2023-02-21T08:44:15;71062.59;;;-146.40;47.75
13033;BME280;6583;42.632;23.298;2023-02-21T08:46:43;71036.28;;;-146.40;47.40
13033;BME280;6583;42.632;23.298;2023-02-21T08:49:11;71056.53;;;-146.40;48.21
13033;BME280;6583;42.632;23.298;2023-02-21T08:51:38;71056.53;;;-146.40;48.81
13033;BME280;6583;42.632;23.298;2023-02-21T08:54:06;71044.38;;;-146.40;47.15
13033;BME280;6583;42.632;23.298;2023-02-21T08:56:33;71020.09;;;-146.40;47.41
13033;BME280;6583;42.632;23.298;2023-02-21T08:59:00;71007.97;;;-146.40;47.49
13033;BME280;6583;42.632;23.298;2023-02-21T09:01:30;71003.91;;;-146.40;48.27
13033;BME280;6583;42.632;23.298;2023-02-21T09:03:58;70979.63;;;-146.40;46.08
13033;BME280;6583;42.632;23.298;2023-02-21T09:06:26;70977.59;;;-146.40;46.75
13033;BME280;6583;42.632;23.298;2023-02-21T09:33:05;70742.88;;;-146.40;41.73
13033;BME280;6583;42.632;23.298;2023-02-21T09:35:32;70761.09;;;-146.40;40.98
13033;BME280;6583;42.632;23.298;2023-02-21T09:52:24;70607.31;;;-146.40;38.20
13033;BME280;6583;42.632;23.298;2023-02-21T09:54:56;70627.56;;;-146.40;39.01
13033;BME280;6583;42.632;23.298;2023-02-21T09:57:23;70627.56;;;-146.40;38.90
13033;BME280;6583;42.632;23.298;2023-02-21T09:59:50;70621.50;;;-146.40;39.20
13033;BME280;6583;42.632;23.298;2023-02-21T10:02:31;70617.44;;;-146.40;39.08
13033;BME280;6583;42.632;23.298;2023-02-21T10:05:12;70601.25;;;-146.40;38.65
13033;BME280;6583;42.632;23.298;2023-02-21T10:07:50;70562.81;;;-146.40;37.99
13033;BME280;6583;42.632;23.298;2023-02-21T10:10:23;70560.78;;;-146.40;37.58
13033;BME280;6583;42.632;23.298;2023-02-21T10:12:58;70544.59;;;-146.40;37.32
13033;BME280;6583;42.632;23.298;2023-02-21T10:15:36;70522.34;;;-146.40;36.43
13033;BME280;6583;42.632;23.298;2023-02-21T10:18:12;70504.16;;;-146.40;37.41
13033;BME280;6583;42.632;23.298;2023-02-21T10:20:45;70481.88;;;-146.40;36.48
13033;BME280;6583;42.632;23.298;2023-02-21T10:23:18;70473.78;;;-146.40;36.48
13033;BME280;6583;42.632;23.298;2023-02-21T10:25:47;70439.41;;;-146.40;34.26
13033;BME280;6583;42.632;23.298;2023-02-21T10:28:19;70415.13;;;-146.40;32.65
13033;BME280;6583;42.632;23.298;2023-02-21T10:30:47;70378.72;;;-146.40;33.28
13033;BME280;6583;42.632;23.298;2023-02-21T10:33:15;70352.41;;;-146.40;30.89
13033;BME280;6583;42.632;23.298;2023-02-21T10:35:42;70301.84;;;-146.40;29.20
13033;BME280;6583;42.632;23.298;2023-02-21T10:38:11;70263.38;;;-146.40;28.82
13033;BME280;6583;42.632;23.298;2023-02-21T10:40:41;70243.16;;;-146.40;28.95
13033;BME280;6583;42.632;23.298;2023-02-21T10:43:11;70235.06;;;-146.40;29.46
13033;BME280;6583;42.632;23.298;2023-02-21T10:45:43;70226.97;;;-146.40;29.81
13033;BME280;6583;42.632;23.298;2023-02-21T10:48:11;70204.72;;;-146.40;28.87
13033;BME280;6583;42.632;23.298;2023-02-21T10:50:48;70184.50;;;-146.40;29.09
13033;BME280;6583;42.632;23.298;2023-02-21T10:53:27;70178.44;;;-146.40;28.36
13033;BME280;6583;42.632;23.298;2023-02-21T10:56:24;70170.34;;;-146.40;27.96
13033;BME280;6583;42.632;23.298;2023-02-21T10:58:55;70146.06;;;-146.40;28.17
13033;BME280;6583;42.632;23.298;2023-02-21T11:01:32;70137.97;;;-146.40;29.03
13033;BME280;6583;42.632;23.298;2023-02-21T11:04:02;70125.81;;;-146.40;27.88
13033;BME280;6583;42.632;23.298;2023-02-21T11:06:36;70129.88;;;-146.40;28.28
13033;BME280;6583;42.632;23.298;2023-02-21T11:09:29;70113.69;;;-146.40;28.29
13033;BME280;6583;42.632;23.298;2023-02-21T11:12:02;70109.63;;;-146.40;28.21
13033;BME280;6583;42.632;23.298;2023-02-21T11:14:30;70093.47;;;-146.40;28.63
13033;BME280;6583;42.632;23.298;2023-02-21T11:17:13;70097.50;;;-146.40;28.71
13033;BME280;6583;42.632;23.298;2023-02-21T11:19:45;70097.50;;;-146.40;28.02
13033;BME280;6583;42.632;23.298;2023-02-21T11:22:13;70093.47;;;-146.40;28.13
13033;BME280;6583;42.632;23.298;2023-02-21T11:24:52;70085.38;;;-146.40;28.74
13033;BME280;6583;42.632;23.298;2023-02-21T11:27:22;70085.38;;;-146.40;27.69
13033;BME280;6583;42.632;23.298;2023-02-21T11:29:50;70057.03;;;-146.40;27.73
13033;BME280;6583;42.632;23.298;2023-02-21T11:32:23;70034.78;;;-146.40;27.38
13033;BME280;6583;42.632;23.298;2023-02-21T11:34:50;70040.88;;;-146.40;27.59
13033;BME280;6583;42.632;23.298;2023-02-21T11:37:17;70036.81;;;-146.40;28.35
13033;BME280;6583;42.632;23.298;2023-02-21T11:39:50;70030.75;;;-146.40;27.55
13033;BME280;6583;42.632;23.298;2023-02-21T11:42:26;70026.69;;;-146.40;28.57
13033;BME280;6583;42.632;23.298;2023-02-21T11:45:10;70032.78;;;-146.40;27.47
13033;BME280;6583;42.632;23.298;2023-02-21T11:47:43;70014.56;;;-146.40;27.78
13033;BME280;6583;42.632;23.298;2023-02-21T11:50:14;70008.50;;;-146.40;28.57
13033;BME280;6583;42.632;23.298;2023-02-21T11:52:46;70000.41;;;-146.40;28.38
13033;BME280;6583;42.632;23.298;2023-02-21T11:55:18;70004.44;;;-146.40;28.48
13033;BME280;6583;42.632;23.298;2023-02-21T11:57:54;70000.41;;;-146.40;28.80
13033;BME280;6583;42.632;23.298;2023-02-21T12:00:25;70004.44;;;-146.40;28.71
13033;BME280;6583;42.632;23.298;2023-02-21T12:03:17;69992.31;;;-146.40;28.01
13033;BME280;6583;42.632;23.298;2023-02-21T12:05:57;69990.28;;;-146.40;28.79
13033;BME280;6583;42.632;23.298;2023-02-21T12:08:49;69980.19;;;-146.40;27.82
13033;BME280;6583;42.632;23.298;2023-02-21T12:11:43;69978.16;;;-146.40;27.72
13033;BME280;6583;42.632;23.298;2023-02-21T12:14:34;69972.09;;;-146.40;28.43
13033;BME280;6583;42.632;23.298;2023-02-21T12:17:13;69984.22;;;-146.40;29.21
13033;BME280;6583;42.632;23.298;2023-02-21T12:19:56;69996.34;;;-146.40;29.13
13033;BME280;6583;42.632;23.298;2023-02-21T12:22:39;70000.41;;;-146.40;28.65
13033;BME280;6583;42.632;23.298;2023-02-21T12:25:17;70002.44;;;-146.40;28.53
13033;BME280;6583;42.632;23.298;2023-02-21T12:27:51;69998.38;;;-146.40;28.96
13033;BME280;6583;42.632;23.298;2023-02-21T12:30:42;70000.41;;;-146.40;29.60
13033;BME280;6583;42.632;23.298;2023-02-21T12:33:25;70002.44;;;-146.40;29.24
13033;BME280;6583;42.632;23.298;2023-02-21T12:36:08;69996.34;;;-146.40;28.53
13033;BME280;6583;42.632;23.298;2023-02-21T12:38:50;69986.25;;;-146.40;28.63
13033;BME280;6583;42.632;23.298;2023-02-21T12:41:27;69966.00;;;-146.40;28.56
13033;BME280;6583;42.632;23.298;2023-02-21T12:44:00;69964.00;;;-146.40;29.40
13033;BME280;6583;42.632;23.298;2023-02-21T12:46:35;69961.97;;;-146.40;29.23
13033;BME280;6583;42.632;23.298;2023-02-21T12:49:05;69955.91;;;-146.40;29.56
13033;BME280;6583;42.632;23.298;2023-02-21T12:51:38;69955.91;;;-146.40;28.00
13033;BME280;6583;42.632;23.298;2023-02-21T12:54:11;69951.84;;;-146.40;28.88
13033;BME280;6583;42.632;23.298;2023-02-21T12:56:45;69949.84;;;-146.40;28.25
13033;BME280;6583;42.632;23.298;2023-02-21T12:59:17;69939.72;;;-146.40;28.20
13033;BME280;6583;42.632;23.298;2023-02-21T13:01:49;69939.72;;;-146.40;28.26
13033;BME280;6583;42.632;23.298;2023-02-21T13:04:26;69933.66;;;-146.40;28.40
13033;BME280;6583;42.632;23.298;2023-02-21T13:06:57;69935.66;;;-146.40;28.31
13033;BME280;6583;42.632;23.298;2023-02-21T13:09:32;69935.66;;;-146.40;28.43
13033;BME280;6583;42.632;23.298;2023-02-21T13:12:04;69929.59;;;-146.40;27.97
13033;BME280;6583;42.632;23.298;2023-02-21T13:14:38;69927.59;;;-146.40;28.84
13033;BME280;6583;42.632;23.298;2023-02-21T13:17:10;69931.63;;;-146.40;28.37
13033;BME280;6583;42.632;23.298;2023-02-21T13:19:42;69927.59;;;-146.40;28.74
13033;BME280;6583;42.632;23.298;2023-02-21T13:25:40;69911.41;;;-146.40;27.41
13033;BME280;6583;42.632;23.298;2023-02-21T13:28:14;69919.50;;;-146.40;28.14
13033;BME280;6583;42.632;23.298;2023-02-21T13:30:45;69909.38;;;-146.40;28.28
13033;BME280;6583;42.632;23.298;2023-02-21T13:33:29;69899.25;;;-146.40;28.02
13033;BME280;6583;42.632;23.298;2023-02-21T13:36:17;69899.25;;;-146.40;28.71
13033;BME280;6583;42.632;23.298;2023-02-21T13:38:46;69903.31;;;-146.40;28.10
13033;BME280;6583;42.632;23.298;2023-02-21T13:41:24;69911.41;;;-146.40;28.59
13033;BME280;6583;42.632;23.298;2023-02-21T13:43:53;69919.50;;;-146.40;28.82
13033;BME280;6583;42.632;23.298;2023-02-21T13:49:54;69919.50;;;-146.40;28.02
13033;BME280;6583;42.632;23.298;2023-02-21T13:55:29;69913.41;;;-146.40;28.47
13033;BME280;6583;42.632;23.298;2023-02-21T13:58:27;69913.41;;;-146.40;29.51
13033;BME280;6583;42.632;23.298;2023-02-21T14:00:56;69915.44;;;-146.40;28.08
13033;BME280;6583;42.632;23.298;2023-02-21T14:03:38;69919.50;;;-146.40;29.34
13033;BME280;6583;42.632;23.298;2023-02-21T14:09:16;69933.66;;;-146.40;28.66
13033;BME280;6583;42.632;23.298;2023-02-21T14:11:48;69935.66;;;-146.40;29.39
13033;BME280;6583;42.632;23.298;2023-02-21T14:14:21;69931.63;;;-146.40;28.98